createdAt,value
2023-04-23T00:03:58.379Z,1.00
2023-04-23T00:09:25.150Z,1.13
2023-04-23T00:14:51.151Z,1.00
2023-04-23T00:20:20.152Z,0.98
2023-04-23T00:25:44.195Z,1.10
2023-04-23T00:31:09.180Z,1.02
2023-04-23T00:36:36.167Z,1.23
2023-04-23T00:42:01.210Z,1.08
2023-04-23T00:47:27.214Z,1.00
2023-04-23T00:52:55.200Z,1.00
2023-04-23T00:58:20.192Z,1.00
2023-04-23T01:03:47.319Z,1.20
2023-04-23T01:09:16.188Z,1.20
2023-04-23T01:14:42.324Z,1.20
2023-04-23T01:20:06.210Z,1.20
2023-04-23T01:25:34.242Z,1.10
2023-04-23T01:30:59.239Z,1.20
2023-04-23T01:36:25.220Z,1.10
2023-04-23T01:41:53.220Z,1.10
2023-04-23T01:47:19.226Z,1.20
2023-04-23T01:52:43.213Z,1.20
2023-04-23T01:58:11.223Z,1.10
2023-04-23T02:03:37.386Z,1.15
2023-04-23T02:09:02.261Z,1.40
2023-04-23T02:14:29.204Z,1.20
2023-04-23T02:19:54.224Z,1.40
2023-04-23T02:25:22.226Z,1.30
2023-04-23T02:30:52.273Z,1.20
2023-04-23T02:36:19.238Z,1.30
2023-04-23T02:41:44.296Z,1.13
2023-04-23T02:47:11.256Z,1.42
2023-04-23T02:52:36.255Z,1.38
2023-04-23T02:58:00.251Z,1.40
2023-04-23T03:03:33.610Z,1.40
2023-04-23T03:08:57.328Z,1.13
2023-04-23T03:14:22.284Z,1.48
2023-04-23T03:19:49.283Z,1.27
2023-04-23T03:25:15.266Z,1.30
2023-04-23T03:30:40.323Z,1.30
2023-04-23T03:36:08.308Z,1.30
2023-04-23T03:41:32.322Z,1.30
2023-04-23T03:46:59.308Z,1.20
2023-04-23T03:52:27.264Z,1.40
2023-04-23T03:57:58.311Z,1.50
2023-04-23T04:03:35.416Z,1.50
2023-04-23T04:09:02.325Z,1.40
2023-04-23T04:14:27.327Z,1.40
2023-04-23T04:19:52.302Z,1.48
2023-04-23T04:25:20.300Z,1.27
2023-04-23T04:30:45.287Z,1.80
2023-04-23T04:36:11.347Z,1.50
2023-04-23T04:41:39.336Z,1.55
2023-04-23T04:47:04.440Z,1.55
2023-04-23T04:52:28.328Z,1.58
2023-04-23T04:58:02.324Z,1.67
2023-04-23T05:03:27.519Z,1.80
2023-04-23T05:08:54.327Z,1.80
2023-04-23T05:14:22.361Z,1.40
2023-04-23T05:19:46.334Z,1.50
2023-04-23T05:25:11.356Z,1.30
2023-04-23T05:30:38.337Z,1.50
2023-04-23T05:36:04.391Z,1.52
2023-04-23T05:41:29.347Z,1.40
2023-04-23T05:46:57.326Z,1.40
2023-04-23T05:52:21.387Z,1.00
2023-04-23T05:57:53.386Z,0.63
2023-04-23T06:03:21.599Z,0.50
2023-04-23T06:08:54.377Z,0.40
2023-04-23T06:14:20.378Z,0.45
2023-04-23T06:19:47.408Z,0.45
2023-04-23T06:25:12.366Z,0.50
2023-04-23T06:30:38.399Z,0.35
2023-04-23T06:36:06.384Z,0.50
2023-04-23T06:41:31.340Z,0.40
2023-04-23T06:47:24.374Z,0.40
2023-04-23T06:52:59.380Z,0.30
2023-04-23T06:58:34.356Z,0.30
2023-04-23T07:04:07.435Z,0.40
2023-04-23T07:09:34.588Z,0.40
2023-04-23T07:15:01.416Z,0.40
2023-04-23T07:20:26.495Z,0.30
2023-04-23T07:25:54.447Z,0.40
2023-04-23T07:31:18.403Z,0.55
2023-04-23T07:36:43.498Z,0.40
2023-04-23T07:42:12.531Z,0.32
2023-04-23T07:47:37.435Z,0.40
2023-04-23T07:53:02.424Z,0.50
2023-04-23T07:58:37.424Z,0.40
2023-04-23T08:04:09.698Z,0.43
2023-04-23T08:09:34.459Z,0.38
2023-04-23T08:15:01.460Z,0.40
2023-04-23T08:20:30.462Z,0.40
2023-04-23T08:25:54.437Z,0.50
2023-04-23T08:31:26.835Z,0.50
2023-04-23T08:36:53.470Z,0.35
2023-04-23T08:42:25.470Z,0.40
2023-04-23T08:47:54.464Z,0.50
2023-04-23T08:53:19.474Z,0.30
2023-04-23T08:58:44.497Z,0.30
2023-04-23T09:04:12.447Z,0.40
2023-04-23T09:09:38.483Z,0.40
2023-04-23T09:15:03.482Z,0.35
2023-04-23T09:20:30.509Z,0.35
2023-04-23T09:25:55.503Z,0.47
2023-04-23T09:31:21.484Z,0.40
2023-04-23T09:36:49.478Z,0.40
2023-04-23T09:42:21.483Z,0.32
2023-04-23T09:47:49.552Z,0.40
2023-04-23T09:53:16.510Z,0.50
2023-04-23T09:58:47.499Z,0.40
2023-04-23T10:04:12.633Z,0.50
2023-04-23T10:09:40.683Z,0.40
2023-04-23T10:15:06.488Z,0.45
2023-04-23T10:20:32.521Z,0.40
2023-04-23T10:26:02.517Z,0.40
2023-04-23T10:31:26.548Z,0.50
2023-04-23T10:36:51.760Z,0.30
2023-04-23T10:42:20.508Z,0.30
2023-04-23T10:47:51.938Z,0.50
2023-04-23T10:53:17.578Z,0.47
2023-04-23T10:59:07.579Z,0.40
2023-04-23T11:04:35.717Z,0.40
2023-04-23T11:10:04.585Z,0.40
2023-04-23T11:15:33.538Z,0.25
2023-04-23T11:20:58.561Z,0.40
2023-04-23T11:26:27.751Z,0.30
2023-04-23T11:32:02.371Z,0.40
2023-04-23T11:37:28.570Z,0.40
2023-04-23T11:43:04.599Z,0.30
2023-04-23T11:48:33.587Z,0.30
2023-04-23T11:54:01.536Z,0.50
2023-04-23T11:59:26.569Z,0.32
2023-04-23T12:04:53.651Z,0.30
2023-04-23T12:10:19.678Z,0.30
2023-04-23T12:15:43.614Z,0.30
2023-04-23T12:21:20.842Z,0.50
2023-04-23T12:26:45.625Z,0.40
2023-04-23T12:32:11.609Z,0.40
2023-04-23T12:37:43.615Z,0.38
2023-04-23T12:43:08.591Z,0.43
2023-04-23T12:48:32.595Z,0.38
2023-04-23T12:54:00.717Z,0.30
2023-04-23T12:59:24.638Z,0.32
2023-04-23T13:04:49.587Z,0.40
2023-04-23T13:10:16.644Z,0.30
2023-04-23T13:15:41.644Z,0.22
2023-04-23T13:21:05.650Z,0.40
2023-04-23T13:26:33.685Z,0.30
2023-04-23T13:31:59.633Z,0.43
2023-04-23T13:37:24.823Z,0.43
2023-04-23T13:42:51.686Z,0.30
2023-04-23T13:48:17.648Z,0.82
2023-04-23T13:53:42.691Z,0.32
2023-04-23T13:59:19.848Z,0.30
2023-04-23T14:04:46.712Z,0.40
2023-04-23T14:10:11.637Z,0.28
2023-04-23T14:15:39.778Z,0.32
2023-04-23T14:21:05.686Z,0.22
2023-04-23T14:26:47.952Z,0.30
2023-04-23T14:32:10.730Z,0.22
2023-04-23T14:37:34.699Z,0.20
2023-04-23T14:43:12.176Z,0.30
2023-04-23T14:48:42.671Z,0.30
2023-04-23T14:54:07.695Z,0.20
2023-04-23T14:59:32.708Z,0.30
2023-04-23T15:05:00.714Z,0.30
2023-04-23T15:10:25.719Z,0.40
2023-04-23T15:15:54.719Z,0.30
2023-04-23T15:21:22.705Z,0.20
2023-04-23T15:26:47.739Z,0.28
2023-04-23T15:32:11.886Z,0.20
2023-04-23T15:37:39.722Z,0.20
2023-04-23T15:43:03.741Z,0.32
2023-04-23T15:48:30.749Z,0.30
2023-04-23T15:53:58.751Z,0.30
2023-04-23T15:59:30.742Z,0.30
2023-04-23T16:04:57.768Z,0.35
2023-04-23T16:10:28.006Z,0.20
2023-04-23T16:15:55.758Z,0.30
2023-04-23T16:21:42.834Z,0.33
2023-04-23T16:27:12.746Z,0.20
2023-04-23T16:32:36.813Z,0.30
2023-04-23T16:38:01.748Z,0.20
2023-04-23T16:43:28.874Z,0.20
2023-04-23T16:48:53.820Z,0.30
2023-04-23T16:54:17.790Z,0.20
2023-04-23T16:59:47.759Z,0.30
2023-04-23T17:05:12.824Z,0.40
2023-04-23T17:10:37.791Z,0.30
2023-04-23T17:16:04.810Z,0.40
2023-04-23T17:21:30.786Z,0.22
2023-04-23T17:26:55.837Z,0.30
2023-04-23T17:32:24.044Z,0.40
2023-04-23T17:43:38.795Z,0.30
2023-04-23T17:49:06.797Z,0.38
2023-04-23T17:54:30.873Z,0.22
2023-04-23T17:59:55.849Z,0.40
2023-04-23T18:05:33.836Z,0.50
2023-04-23T18:10:58.817Z,0.30
2023-04-23T18:16:22.843Z,0.25
2023-04-23T18:21:51.837Z,0.40
2023-04-23T18:27:15.818Z,0.40
2023-04-23T18:32:45.885Z,0.30
2023-04-23T18:38:19.830Z,0.32
2023-04-23T18:43:44.835Z,0.30
2023-04-23T18:49:15.853Z,0.40
2023-04-23T18:54:43.889Z,0.35
2023-04-23T19:00:07.891Z,0.40
2023-04-23T19:05:33.928Z,0.30
2023-04-23T19:11:00.918Z,0.30
2023-04-23T19:16:25.967Z,0.35
2023-04-23T19:21:52.133Z,0.30
2023-04-23T19:27:19.896Z,0.50
2023-04-23T19:32:43.929Z,0.40
2023-04-23T19:38:08.892Z,0.40
2023-04-23T19:43:35.998Z,0.40
2023-04-23T19:49:01.910Z,0.40
2023-04-23T19:54:28.534Z,0.40
2023-04-23T20:00:02.885Z,0.40
2023-04-23T20:05:28.915Z,0.50
2023-04-23T20:10:52.904Z,0.50
2023-04-23T20:16:20.944Z,0.40
2023-04-23T20:21:45.891Z,0.60
2023-04-23T20:27:12.968Z,0.47
2023-04-23T20:32:40.947Z,0.40
2023-04-23T20:38:07.986Z,0.40
2023-04-23T20:43:33.944Z,0.50
2023-04-23T20:49:01.953Z,0.50
2023-04-23T20:54:25.941Z,0.55
2023-04-23T20:59:56.940Z,0.45
2023-04-23T21:05:25.009Z,0.45
2023-04-23T21:10:52.975Z,0.50
2023-04-23T21:16:18.036Z,0.60
2023-04-23T21:21:38.930Z,0.40
2023-04-23T21:27:03.956Z,0.57
2023-04-23T21:32:28.937Z,0.50
2023-04-23T21:38:23.949Z,0.60
2023-04-23T21:43:48.957Z,0.40
2023-04-23T21:49:15.023Z,0.60
2023-04-23T21:54:42.966Z,0.65
2023-04-23T22:00:16.020Z,0.70
2023-04-23T22:05:40.976Z,0.65
2023-04-23T22:11:08.009Z,0.50
2023-04-23T22:16:32.977Z,0.45
2023-04-23T22:21:56.972Z,0.40
2023-04-23T22:27:24.964Z,0.50
2023-04-23T22:32:49.009Z,0.40
2023-04-23T22:38:15.012Z,0.38
2023-04-23T22:43:41.967Z,0.38
2023-04-23T22:49:07.989Z,0.45
2023-04-23T22:54:33.005Z,0.50
2023-04-23T23:00:06.992Z,0.40
2023-04-23T23:05:32.045Z,0.40
2023-04-23T23:10:55.999Z,0.50
2023-04-23T23:16:24.081Z,0.32
2023-04-23T23:21:49.049Z,0.68
2023-04-23T23:27:14.015Z,0.60
2023-04-23T23:32:41.060Z,0.70
2023-04-23T23:38:06.040Z,0.65
2023-04-23T23:43:30.031Z,0.60
2023-04-23T23:48:58.036Z,0.50
2023-04-23T23:54:22.022Z,0.60
2023-04-23T23:59:47.038Z,0.63
